createdAt,value
2023-04-20T00:00:11.245Z,684.00
2023-04-20T00:01:11.196Z,684.00
2023-04-20T00:02:11.299Z,684.00
2023-04-20T00:03:11.397Z,683.00
2023-04-20T00:04:11.237Z,682.00
2023-04-20T00:05:11.258Z,682.00
2023-04-20T00:06:11.249Z,682.00
2023-04-20T00:07:11.250Z,681.00
2023-04-20T00:08:11.265Z,680.00
2023-04-20T00:09:11.272Z,680.00
2023-04-20T00:10:11.295Z,681.00
2023-04-20T00:11:11.298Z,681.00
2023-04-20T00:12:11.313Z,681.00
2023-04-20T00:13:11.715Z,684.00
2023-04-20T00:14:11.325Z,684.00
2023-04-20T00:15:11.329Z,681.00
2023-04-20T00:16:11.346Z,683.00
2023-04-20T00:17:11.414Z,684.00
2023-04-20T00:18:11.365Z,684.00
2023-04-20T00:19:11.365Z,683.00
2023-04-20T00:20:11.374Z,680.00
2023-04-20T00:21:11.383Z,679.00
2023-04-20T00:22:11.413Z,679.00
2023-04-20T00:23:11.407Z,677.00
2023-04-20T00:24:11.410Z,679.00
2023-04-20T00:25:11.461Z,680.00
2023-04-20T00:26:11.425Z,681.00
2023-04-20T00:27:11.429Z,676.00
2023-04-20T00:28:11.451Z,677.00
2023-04-20T00:29:11.458Z,677.00
2023-04-20T00:30:11.469Z,680.00
2023-04-20T00:31:11.505Z,677.00
2023-04-20T00:32:11.451Z,673.00
2023-04-20T00:33:11.464Z,673.00
2023-04-20T00:34:11.469Z,674.00
2023-04-20T00:35:11.553Z,677.00
2023-04-20T00:36:11.483Z,678.00
2023-04-20T00:37:11.490Z,675.00
2023-04-20T00:38:11.495Z,677.00
2023-04-20T00:39:11.522Z,673.00
2023-04-20T00:40:11.509Z,670.00
2023-04-20T00:41:11.512Z,670.00
2023-04-20T00:42:11.527Z,669.00
2023-04-20T00:43:11.529Z,669.00
2023-04-20T00:44:11.561Z,669.00
2023-04-20T00:45:11.557Z,670.00
2023-04-20T00:46:11.623Z,669.00
2023-04-20T00:47:11.565Z,672.00
2023-04-20T00:48:11.575Z,670.00
2023-04-20T00:49:11.581Z,671.00
2023-04-20T00:50:11.588Z,669.00
2023-04-20T00:51:11.594Z,672.00
2023-04-20T00:52:11.598Z,672.00
2023-04-20T00:53:11.669Z,671.00
2023-04-20T00:54:11.625Z,671.00
2023-04-20T00:55:11.613Z,671.00
2023-04-20T00:56:11.627Z,670.00
2023-04-20T00:57:11.631Z,668.00
2023-04-20T00:58:11.640Z,666.00
2023-04-20T00:59:11.646Z,666.00
2023-04-20T01:00:11.664Z,665.00
2023-04-20T01:01:11.735Z,664.00
2023-04-20T01:02:11.734Z,663.00
2023-04-20T01:03:11.768Z,666.00
2023-04-20T01:04:11.833Z,666.00
2023-04-20T01:05:11.695Z,663.00
2023-04-20T01:06:11.710Z,663.00
2023-04-20T01:07:11.709Z,663.00
2023-04-20T01:08:11.697Z,663.00
2023-04-20T01:09:11.716Z,666.00
2023-04-20T01:10:11.731Z,667.00
2023-04-20T01:11:11.746Z,665.00
2023-04-20T01:12:11.777Z,665.00
2023-04-20T01:13:11.749Z,668.00
2023-04-20T01:14:11.768Z,669.00
2023-04-20T01:15:11.822Z,670.00
2023-04-20T01:16:11.914Z,670.00
2023-04-20T01:17:11.792Z,670.00
2023-04-20T01:18:11.797Z,667.00
2023-04-20T01:19:11.809Z,670.00
2023-04-20T01:20:11.824Z,669.00
2023-04-20T01:21:11.815Z,669.00
2023-04-20T01:22:12.755Z,671.00
2023-04-20T01:23:11.846Z,670.00
2023-04-20T01:24:11.854Z,671.00
2023-04-20T01:25:11.868Z,672.00
2023-04-20T01:26:11.867Z,668.00
2023-04-20T01:27:11.871Z,666.00
2023-04-20T01:28:11.884Z,667.00
2023-04-20T01:29:11.919Z,670.00
2023-04-20T01:30:11.926Z,670.00
2023-04-20T01:31:11.975Z,673.00
2023-04-20T01:32:11.926Z,674.00
2023-04-20T01:33:11.930Z,673.00
2023-04-20T01:34:11.936Z,675.00
2023-04-20T01:35:11.942Z,675.00
2023-04-20T01:36:11.951Z,673.00
2023-04-20T01:37:11.958Z,673.00
2023-04-20T01:38:11.971Z,673.00
2023-04-20T01:39:11.995Z,674.00
2023-04-20T01:40:11.976Z,674.00
2023-04-20T01:41:12.000Z,675.00
2023-04-20T01:42:11.983Z,676.00
2023-04-20T01:43:11.993Z,674.00
2023-04-20T01:44:12.007Z,676.00
2023-04-20T01:45:12.012Z,677.00
2023-04-20T01:46:12.034Z,678.00
2023-04-20T01:47:12.011Z,681.00
2023-04-20T01:48:12.036Z,681.00
2023-04-20T01:49:12.033Z,683.00
2023-04-20T01:50:12.046Z,684.00
2023-04-20T01:51:12.027Z,685.00
2023-04-20T01:52:12.040Z,685.00
2023-04-20T01:53:12.049Z,682.00
2023-04-20T01:54:12.074Z,682.00
2023-04-20T01:55:12.067Z,680.00
2023-04-20T01:56:12.074Z,678.00
2023-04-20T01:57:12.088Z,680.00
2023-04-20T01:58:12.084Z,675.00
2023-04-20T01:59:12.090Z,676.00
2023-04-20T02:00:12.080Z,672.00
2023-04-20T02:01:12.147Z,670.00
2023-04-20T02:02:12.160Z,670.00
2023-04-20T02:03:12.282Z,669.00
2023-04-20T02:04:12.166Z,667.00
2023-04-20T02:05:12.110Z,667.00
2023-04-20T02:06:12.123Z,667.00
2023-04-20T02:07:12.123Z,668.00
2023-04-20T02:08:12.131Z,671.00
2023-04-20T02:09:12.137Z,670.00
2023-04-20T02:10:12.152Z,666.00
2023-04-20T02:11:12.161Z,665.00
2023-04-20T02:12:12.158Z,665.00
2023-04-20T02:13:12.162Z,667.00
2023-04-20T02:14:12.171Z,669.00
2023-04-20T02:15:12.178Z,671.00
2023-04-20T02:16:12.193Z,671.00
2023-04-20T02:17:12.222Z,670.00
2023-04-20T02:18:12.207Z,664.00
2023-04-20T02:19:12.208Z,663.00
2023-04-20T02:20:12.203Z,663.00
2023-04-20T02:21:12.214Z,662.00
2023-04-20T02:22:12.222Z,661.00
2023-04-20T02:23:12.228Z,663.00
2023-04-20T02:24:12.242Z,663.00
2023-04-20T02:25:12.234Z,666.00
2023-04-20T02:26:12.240Z,665.00
2023-04-20T02:27:12.245Z,665.00
2023-04-20T02:28:12.249Z,664.00
2023-04-20T02:29:12.263Z,665.00
2023-04-20T02:30:12.265Z,667.00
2023-04-20T02:31:12.361Z,667.00
2023-04-20T02:32:12.277Z,666.00
2023-04-20T02:33:12.299Z,665.00
2023-04-20T02:34:12.295Z,666.00
2023-04-20T02:35:12.290Z,665.00
2023-04-20T02:36:12.319Z,662.00
2023-04-20T02:37:12.320Z,663.00
2023-04-20T02:38:12.325Z,665.00
2023-04-20T02:39:12.330Z,663.00
2023-04-20T02:40:12.334Z,663.00
2023-04-20T02:41:12.342Z,664.00
2023-04-20T02:42:12.347Z,666.00
2023-04-20T02:43:12.369Z,667.00
2023-04-20T02:44:12.409Z,668.00
2023-04-20T02:45:12.380Z,668.00
2023-04-20T02:46:12.414Z,667.00
2023-04-20T02:47:12.395Z,665.00
2023-04-20T02:48:12.409Z,665.00
2023-04-20T02:49:12.415Z,666.00
2023-04-20T02:50:12.409Z,665.00
2023-04-20T02:51:12.436Z,663.00
2023-04-20T02:52:12.435Z,664.00
2023-04-20T02:53:12.443Z,665.00
2023-04-20T02:54:12.448Z,666.00
2023-04-20T02:55:12.451Z,667.00
2023-04-20T02:56:12.462Z,668.00
2023-04-20T02:57:12.480Z,667.00
2023-04-20T02:58:12.610Z,668.00
2023-04-20T02:59:12.497Z,665.00
2023-04-20T03:00:12.505Z,665.00
2023-04-20T03:01:12.515Z,663.00
2023-04-20T03:02:12.660Z,665.00
2023-04-20T03:03:12.661Z,664.00
2023-04-20T03:04:12.687Z,663.00
2023-04-20T03:05:12.573Z,665.00
2023-04-20T03:06:12.582Z,665.00
2023-04-20T03:07:14.635Z,661.00
2023-04-20T03:08:12.572Z,661.00
2023-04-20T03:09:12.561Z,662.00
2023-04-20T03:10:12.543Z,660.00
2023-04-20T03:11:12.534Z,660.00
2023-04-20T03:12:12.513Z,662.00
2023-04-20T03:13:12.569Z,663.00
2023-04-20T03:14:12.481Z,663.00
2023-04-20T03:15:12.462Z,664.00
2023-04-20T03:16:12.452Z,664.00
2023-04-20T03:17:12.433Z,665.00
2023-04-20T03:18:12.409Z,666.00
2023-04-20T03:19:12.404Z,667.00
2023-04-20T03:20:12.373Z,670.00
2023-04-20T03:21:12.366Z,667.00
2023-04-20T03:22:12.344Z,668.00
2023-04-20T03:23:12.339Z,667.00
2023-04-20T03:24:12.328Z,669.00
2023-04-20T03:25:12.295Z,673.00
2023-04-20T03:26:12.278Z,675.00
2023-04-20T03:27:12.804Z,677.00
2023-04-20T03:28:12.253Z,674.00
2023-04-20T03:29:12.253Z,672.00
2023-04-20T03:30:12.294Z,670.00
2023-04-20T03:31:12.212Z,670.00
2023-04-20T03:32:12.260Z,671.00
2023-04-20T03:33:12.219Z,672.00
2023-04-20T03:34:12.188Z,673.00
2023-04-20T03:35:12.171Z,674.00
2023-04-20T03:36:12.170Z,672.00
2023-04-20T03:37:12.152Z,671.00
2023-04-20T03:38:12.117Z,672.00
2023-04-20T03:39:12.113Z,672.00
2023-04-20T03:40:12.096Z,672.00
2023-04-20T03:41:12.071Z,670.00
2023-04-20T03:42:12.795Z,669.00
2023-04-20T03:43:12.034Z,668.00
2023-04-20T03:44:12.024Z,669.00
2023-04-20T03:45:12.002Z,671.00
2023-04-20T03:46:12.028Z,675.00
2023-04-20T03:47:11.969Z,672.00
2023-04-20T03:48:11.952Z,670.00
2023-04-20T03:49:11.932Z,668.00
2023-04-20T03:50:11.909Z,673.00
2023-04-20T03:51:11.900Z,674.00
2023-04-20T03:52:11.865Z,676.00
2023-04-20T03:53:11.854Z,674.00
2023-04-20T03:54:11.846Z,672.00
2023-04-20T03:55:11.820Z,671.00
2023-04-20T03:56:11.814Z,672.00
2023-04-20T03:57:11.794Z,671.00
2023-04-20T03:58:11.775Z,669.00
2023-04-20T03:59:11.759Z,669.00
2023-04-20T04:00:11.729Z,664.00
2023-04-20T04:01:11.712Z,666.00
2023-04-20T04:02:11.733Z,667.00
2023-04-20T04:03:11.953Z,667.00
2023-04-20T04:04:11.968Z,669.00
2023-04-20T04:05:11.658Z,667.00
2023-04-20T04:06:11.623Z,666.00
2023-04-20T04:07:11.604Z,669.00
2023-04-20T04:08:11.584Z,675.00
2023-04-20T04:09:11.578Z,673.00
2023-04-20T04:10:11.557Z,671.00
2023-04-20T04:11:11.523Z,670.00
2023-04-20T04:12:11.516Z,668.00
2023-04-20T04:13:11.506Z,668.00
2023-04-20T04:14:11.484Z,668.00
2023-04-20T04:15:11.490Z,665.00
2023-04-20T04:16:11.454Z,664.00
2023-04-20T04:17:11.474Z,660.00
2023-04-20T04:18:11.417Z,657.00
2023-04-20T04:19:11.410Z,656.00
2023-04-20T04:20:11.411Z,657.00
2023-04-20T04:21:11.377Z,658.00
2023-04-20T04:22:11.375Z,661.00
2023-04-20T04:23:11.351Z,661.00
2023-04-20T04:24:11.331Z,658.00
2023-04-20T04:25:11.313Z,657.00
2023-04-20T04:26:11.292Z,658.00
2023-04-20T04:27:11.290Z,655.00
2023-04-20T04:28:11.304Z,655.00
2023-04-20T04:29:11.264Z,654.00
2023-04-20T04:30:11.304Z,657.00
2023-04-20T04:31:11.332Z,657.00
2023-04-20T04:32:11.294Z,656.00
2023-04-20T04:33:11.291Z,657.00
2023-04-20T04:34:11.298Z,657.00
2023-04-20T04:35:11.326Z,655.00
2023-04-20T04:36:11.321Z,655.00
2023-04-20T04:37:11.328Z,652.00
2023-04-20T04:38:11.345Z,647.00
2023-04-20T04:39:11.341Z,648.00
2023-04-20T04:40:11.356Z,650.00
2023-04-20T04:41:11.355Z,654.00
2023-04-20T04:42:11.376Z,656.00
2023-04-20T04:43:11.365Z,660.00
2023-04-20T04:44:11.375Z,661.00
2023-04-20T04:45:11.395Z,661.00
2023-04-20T04:46:11.465Z,660.00
2023-04-20T04:47:11.399Z,660.00
2023-04-20T04:48:11.420Z,661.00
2023-04-20T04:49:11.405Z,658.00
2023-04-20T04:50:11.412Z,657.00
2023-04-20T04:51:11.427Z,657.00
2023-04-20T04:52:11.430Z,656.00
2023-04-20T04:53:11.430Z,655.00
2023-04-20T04:54:11.432Z,654.00
2023-04-20T04:55:11.456Z,654.00
2023-04-20T04:56:11.457Z,654.00
2023-04-20T04:57:11.476Z,655.00
2023-04-20T04:58:11.469Z,656.00
2023-04-20T04:59:11.492Z,657.00
2023-04-20T05:00:11.495Z,656.00
2023-04-20T05:01:11.498Z,657.00
2023-04-20T05:02:11.572Z,658.00
2023-04-20T05:03:11.632Z,668.00
2023-04-20T05:04:11.752Z,670.00
2023-04-20T05:05:11.548Z,670.00
2023-04-20T05:06:11.562Z,672.00
2023-04-20T05:07:11.589Z,672.00
2023-04-20T05:08:11.595Z,673.00
2023-04-20T05:09:11.608Z,678.00
2023-04-20T05:10:12.364Z,688.00
2023-04-20T05:11:11.640Z,691.00
2023-04-20T05:12:11.648Z,693.00
2023-04-20T05:13:11.672Z,691.00
2023-04-20T05:14:11.696Z,696.00
2023-04-20T05:15:11.722Z,750.00
2023-04-20T05:16:11.763Z,745.00
2023-04-20T05:17:11.738Z,733.00
2023-04-20T05:18:11.769Z,736.00
2023-04-20T05:19:11.805Z,763.00
2023-04-20T05:20:11.823Z,806.00
2023-04-20T05:21:11.857Z,814.00
2023-04-20T05:22:11.898Z,831.00
2023-04-20T05:23:11.924Z,864.00
2023-04-20T05:24:11.975Z,932.00
2023-04-20T05:25:13.882Z,948.00
2023-04-20T05:26:12.041Z,1002.00
2023-04-20T05:27:12.090Z,1065.00
2023-04-20T05:28:12.133Z,1056.00
2023-04-20T05:29:12.165Z,1050.00
2023-04-20T05:30:20.558Z,1025.00
2023-04-20T05:31:13.243Z,981.00
2023-04-20T05:32:12.183Z,1024.00
2023-04-20T05:33:12.163Z,1046.00
2023-04-20T05:34:12.171Z,1062.00
2023-04-20T05:35:12.144Z,1055.00
2023-04-20T05:36:12.123Z,963.00
2023-04-20T05:37:12.115Z,957.00
2023-04-20T05:38:12.099Z,943.00
2023-04-20T05:39:12.085Z,925.00
2023-04-20T05:40:12.066Z,921.00
2023-04-20T05:41:12.050Z,880.00
2023-04-20T05:42:13.364Z,856.00
2023-04-20T05:43:12.017Z,857.00
2023-04-20T05:44:11.997Z,852.00
2023-04-20T05:45:11.987Z,849.00
2023-04-20T05:46:11.974Z,850.00
2023-04-20T05:47:11.943Z,849.00
2023-04-20T05:48:11.916Z,850.00
2023-04-20T05:49:12.003Z,850.00
2023-04-20T05:50:11.914Z,854.00
2023-04-20T05:51:11.873Z,858.00
2023-04-20T05:52:11.913Z,856.00
2023-04-20T05:53:11.913Z,852.00
2023-04-20T05:54:11.932Z,852.00
2023-04-20T05:55:11.922Z,856.00
2023-04-20T05:56:11.966Z,859.00
2023-04-20T05:57:11.954Z,858.00
2023-04-20T05:58:11.981Z,859.00
2023-04-20T05:59:11.976Z,972.00
2023-04-20T06:00:12.000Z,1010.00
2023-04-20T06:01:11.996Z,1006.00
2023-04-20T06:02:12.030Z,917.00
2023-04-20T06:03:12.222Z,870.00
2023-04-20T06:04:12.125Z,859.00
2023-04-20T06:05:12.160Z,850.00
2023-04-20T06:06:12.059Z,853.00
2023-04-20T06:07:12.067Z,857.00
2023-04-20T06:08:12.080Z,858.00
2023-04-20T06:09:12.115Z,852.00
2023-04-20T06:10:12.213Z,868.00
2023-04-20T06:11:12.105Z,903.00
2023-04-20T06:12:12.125Z,897.00
2023-04-20T06:13:12.121Z,887.00
2023-04-20T06:14:12.167Z,878.00
2023-04-20T06:15:12.166Z,871.00
2023-04-20T06:16:12.180Z,863.00
2023-04-20T06:17:12.183Z,860.00
2023-04-20T06:18:12.241Z,857.00
2023-04-20T06:19:12.220Z,868.00
2023-04-20T06:20:12.243Z,885.00
2023-04-20T06:21:12.256Z,886.00
2023-04-20T06:22:12.268Z,1106.00
2023-04-20T06:23:12.322Z,1218.00
2023-04-20T06:24:12.347Z,1220.00
2023-04-20T06:25:12.346Z,1111.00
2023-04-20T06:26:13.894Z,1025.00
2023-04-20T06:27:12.336Z,1004.00
2023-04-20T06:28:12.360Z,1013.00
2023-04-20T06:29:12.338Z,1024.00
2023-04-20T06:30:12.330Z,1034.00
2023-04-20T06:31:12.364Z,1053.00
2023-04-20T06:32:12.312Z,1056.00
2023-04-20T06:33:12.578Z,1052.00
2023-04-20T06:34:13.315Z,1041.00
2023-04-20T06:35:12.276Z,1019.00
2023-04-20T06:36:12.258Z,1001.00
2023-04-20T06:37:12.248Z,994.00
2023-04-20T06:38:12.896Z,987.00
2023-04-20T06:39:12.223Z,986.00
2023-04-20T06:40:13.219Z,976.00
2023-04-20T06:41:12.216Z,966.00
2023-04-20T06:42:12.250Z,962.00
2023-04-20T06:43:12.165Z,953.00
2023-04-20T06:44:12.152Z,952.00
2023-04-20T06:45:12.151Z,951.00
2023-04-20T06:46:12.180Z,948.00
2023-04-20T06:47:12.108Z,946.00
2023-04-20T06:48:30.087Z,949.00
2023-04-20T06:49:13.097Z,948.00
2023-04-20T06:50:12.062Z,945.00
2023-04-20T06:51:12.053Z,944.00
2023-04-20T06:52:12.078Z,934.00
2023-04-20T06:53:12.016Z,928.00
2023-04-20T06:54:12.004Z,925.00
2023-04-20T06:55:11.991Z,924.00
2023-04-20T06:56:11.962Z,925.00
2023-04-20T06:57:11.961Z,926.00
2023-04-20T06:58:11.939Z,925.00
2023-04-20T06:59:12.915Z,932.00
2023-04-20T07:00:11.925Z,938.00
2023-04-20T07:01:11.902Z,935.00
2023-04-20T07:02:11.980Z,932.00
2023-04-20T07:03:12.057Z,929.00
2023-04-20T07:04:11.901Z,922.00
2023-04-20T07:05:11.843Z,920.00
2023-04-20T07:06:11.816Z,916.00
2023-04-20T07:07:11.788Z,914.00
2023-04-20T07:08:11.783Z,907.00
2023-04-20T07:09:11.923Z,908.00
2023-04-20T07:10:11.749Z,914.00
2023-04-20T07:11:11.740Z,922.00
2023-04-20T07:12:11.721Z,922.00
2023-04-20T07:13:11.714Z,918.00
2023-04-20T07:14:14.421Z,903.00
2023-04-20T07:15:12.681Z,911.00
2023-04-20T07:16:11.717Z,977.00
2023-04-20T07:17:11.679Z,1048.00
2023-04-20T07:18:11.754Z,1175.00
2023-04-20T07:19:11.671Z,1178.00
2023-04-20T07:20:11.676Z,1180.00
2023-04-20T07:21:11.650Z,1256.00
2023-04-20T07:22:11.641Z,1256.00
2023-04-20T07:23:11.668Z,1221.00
2023-04-20T07:24:12.447Z,1287.00
2023-04-20T07:25:11.621Z,1316.00
2023-04-20T07:26:11.590Z,1324.00
2023-04-20T07:27:11.561Z,1318.00
2023-04-20T07:28:13.450Z,1318.00
2023-04-20T07:29:11.563Z,1302.00
2023-04-20T07:30:11.761Z,1251.00
2023-04-20T07:31:13.440Z,1257.00
2023-04-20T07:32:11.571Z,1087.00
2023-04-20T07:33:11.506Z,1057.00
2023-04-20T07:34:12.432Z,1045.00
2023-04-20T07:35:11.445Z,1043.00
2023-04-20T07:36:11.414Z,1050.00
2023-04-20T07:37:12.932Z,1049.00
2023-04-20T07:38:11.382Z,1045.00
2023-04-20T07:39:11.373Z,1042.00
2023-04-20T07:40:11.397Z,1040.00
2023-04-20T07:41:11.469Z,1033.00
2023-04-20T07:42:11.341Z,1026.00
2023-04-20T07:43:11.314Z,1017.00
2023-04-20T07:44:11.556Z,1011.00
2023-04-20T07:45:11.287Z,1009.00
2023-04-20T07:46:11.319Z,1009.00
2023-04-20T07:47:11.269Z,1011.00
2023-04-20T07:48:11.285Z,1010.00
2023-04-20T07:49:11.225Z,1006.00
2023-04-20T07:50:11.949Z,1006.00
2023-04-20T07:51:11.192Z,1003.00
2023-04-20T07:52:16.823Z,1001.00
2023-04-20T07:53:11.852Z,1004.00
2023-04-20T07:54:11.148Z,1063.00
2023-04-20T07:55:11.136Z,992.00
2023-04-20T07:56:11.115Z,982.00
2023-04-20T07:57:11.120Z,977.00
2023-04-20T07:58:11.093Z,973.00
2023-04-20T07:59:11.094Z,1041.00
2023-04-20T08:00:11.088Z,1057.00
2023-04-20T08:01:12.859Z,984.00
2023-04-20T08:02:11.274Z,977.00
2023-04-20T08:03:11.304Z,975.00
2023-04-20T08:04:13.649Z,967.00
2023-04-20T08:05:11.114Z,963.00
2023-04-20T08:06:11.938Z,964.00
2023-04-20T08:07:10.947Z,963.00
2023-04-20T08:08:10.918Z,964.00
2023-04-20T08:09:13.445Z,1247.00
2023-04-20T08:10:11.085Z,1261.00
2023-04-20T08:11:11.100Z,1291.00
2023-04-20T08:12:11.132Z,1300.00
2023-04-20T08:13:11.961Z,1232.00
2023-04-20T08:14:11.203Z,1246.00
2023-04-20T08:15:11.262Z,1258.00
2023-04-20T08:16:13.977Z,1265.00
2023-04-20T08:17:11.415Z,1258.00
2023-04-20T08:18:11.352Z,1179.00
2023-04-20T08:19:11.242Z,1301.00
2023-04-20T08:20:11.215Z,1329.00
2023-04-20T08:21:11.897Z,1329.00
2023-04-20T08:22:11.169Z,1362.00
2023-04-20T08:23:11.157Z,1374.00
2023-04-20T08:24:11.130Z,1371.00
2023-04-20T08:25:11.194Z,1365.00
2023-04-20T08:26:11.089Z,1354.00
2023-04-20T08:27:11.088Z,1340.00
2023-04-20T08:28:19.280Z,1161.00
2023-04-20T08:29:12.057Z,1125.00
2023-04-20T08:30:11.029Z,1111.00
2023-04-20T08:31:11.041Z,1105.00
2023-04-20T08:32:10.989Z,1084.00
2023-04-20T08:33:11.015Z,1167.00
2023-04-20T08:34:11.031Z,1206.00
2023-04-20T08:35:10.935Z,1257.00
2023-04-20T08:36:10.915Z,1266.00
2023-04-20T08:37:10.908Z,1162.00
2023-04-20T08:38:12.496Z,1149.00
2023-04-20T08:39:10.865Z,1143.00
2023-04-20T08:40:10.862Z,1136.00
2023-04-20T08:41:10.843Z,1128.00
2023-04-20T08:42:10.812Z,1116.00
2023-04-20T08:43:10.802Z,1108.00
2023-04-20T08:44:10.796Z,1092.00
2023-04-20T08:45:10.765Z,1082.00
2023-04-20T08:46:10.771Z,1081.00
2023-04-20T08:47:10.735Z,1085.00
2023-04-20T08:48:10.733Z,1079.00
2023-04-20T08:49:10.692Z,1071.00
2023-04-20T08:50:10.793Z,1066.00
2023-04-20T08:51:10.662Z,1057.00
2023-04-20T08:52:10.650Z,1055.00
2023-04-20T08:53:10.633Z,1046.00
2023-04-20T08:54:10.613Z,1048.00
2023-04-20T08:55:10.589Z,1045.00
2023-04-20T08:56:10.573Z,1050.00
2023-04-20T08:57:10.563Z,1051.00
2023-04-20T08:58:13.454Z,1051.00
2023-04-20T08:59:10.626Z,1048.00
2023-04-20T09:00:13.488Z,1044.00
2023-04-20T09:01:10.581Z,1045.00
2023-04-20T09:02:10.579Z,1044.00
2023-04-20T09:03:10.672Z,1064.00
2023-04-20T09:04:10.604Z,1045.00
2023-04-20T09:05:10.498Z,1029.00
2023-04-20T09:06:10.644Z,1030.00
2023-04-20T09:07:10.428Z,1027.00
2023-04-20T09:08:10.407Z,1029.00
2023-04-20T09:09:10.393Z,1026.00
2023-04-20T09:10:10.387Z,1048.00
2023-04-20T09:11:10.398Z,1044.00
2023-04-20T09:12:10.355Z,1035.00
2023-04-20T09:13:10.350Z,1037.00
2023-04-20T09:14:10.330Z,1069.00
2023-04-20T09:15:10.325Z,1084.00
2023-04-20T09:16:10.375Z,1090.00
2023-04-20T09:17:10.314Z,1093.00
2023-04-20T09:18:10.314Z,1103.00
2023-04-20T09:19:11.707Z,1101.00
2023-04-20T09:20:10.388Z,1101.00
2023-04-20T09:21:10.420Z,1105.00
2023-04-20T09:22:10.410Z,1104.00
2023-04-20T09:23:10.377Z,1104.00
2023-04-20T09:24:10.373Z,1105.00
2023-04-20T09:25:10.369Z,1102.00
2023-04-20T09:26:10.384Z,1084.00
2023-04-20T09:27:10.385Z,1037.00
2023-04-20T09:28:10.394Z,1029.00
2023-04-20T09:29:10.399Z,1027.00
2023-04-20T09:30:10.401Z,1061.00
2023-04-20T09:31:10.402Z,1037.00
2023-04-20T09:32:11.048Z,1007.00
2023-04-20T09:33:10.465Z,1001.00
2023-04-20T09:34:10.417Z,994.00
2023-04-20T09:35:10.410Z,985.00
2023-04-20T09:36:10.412Z,997.00
2023-04-20T09:37:10.420Z,1012.00
2023-04-20T09:38:10.975Z,1012.00
2023-04-20T09:39:10.426Z,1012.00
2023-04-20T09:40:10.433Z,1007.00
2023-04-20T09:41:10.429Z,1018.00
2023-04-20T09:42:10.422Z,1033.00
2023-04-20T09:43:10.433Z,1026.00
2023-04-20T09:44:10.536Z,1007.00
2023-04-20T09:45:10.469Z,1000.00
2023-04-20T09:46:10.517Z,999.00
2023-04-20T09:47:10.446Z,1000.00
2023-04-20T09:48:10.463Z,1017.00
2023-04-20T09:49:10.487Z,1025.00
2023-04-20T09:50:24.531Z,1024.00
2023-04-20T09:51:11.476Z,1023.00
2023-04-20T09:52:11.013Z,1015.00
2023-04-20T09:53:11.410Z,1012.00
2023-04-20T09:54:10.460Z,1007.00
2023-04-20T09:55:10.398Z,1011.00
2023-04-20T09:56:10.376Z,1019.00
2023-04-20T09:57:10.357Z,1023.00
2023-04-20T09:58:10.338Z,1023.00
2023-04-20T09:59:10.335Z,1035.00
2023-04-20T10:00:10.301Z,1039.00
2023-04-20T10:01:10.327Z,1038.00
2023-04-20T10:02:10.411Z,1039.00
2023-04-20T10:03:10.344Z,1045.00
2023-04-20T10:04:10.528Z,1039.00
2023-04-20T10:05:10.228Z,1020.00
2023-04-20T10:06:10.181Z,1032.00
2023-04-20T10:07:10.171Z,1023.00
2023-04-20T10:08:10.158Z,1013.00
2023-04-20T10:09:10.141Z,1015.00
2023-04-20T10:10:10.134Z,1154.00
2023-04-20T10:11:10.114Z,1178.00
2023-04-20T10:12:10.125Z,1292.00
2023-04-20T10:13:11.122Z,1339.00
2023-04-20T10:14:10.084Z,1321.00
2023-04-20T10:15:10.078Z,1305.00
2023-04-20T10:16:10.083Z,1287.00
2023-04-20T10:17:10.124Z,1286.00
2023-04-20T10:18:10.121Z,1229.00
2023-04-20T10:19:10.003Z,1058.00
2023-04-20T10:20:10.010Z,1055.00
2023-04-20T10:21:09.959Z,1071.00
2023-04-20T10:22:09.951Z,1146.00
2023-04-20T10:23:09.923Z,1142.00
2023-04-20T10:24:09.890Z,1140.00
2023-04-20T10:25:09.868Z,1145.00
2023-04-20T10:26:09.907Z,1140.00
2023-04-20T10:27:09.829Z,1139.00
2023-04-20T10:28:10.494Z,1129.00
2023-04-20T10:29:09.789Z,1128.00
2023-04-20T10:30:09.760Z,1127.00
2023-04-20T10:31:09.764Z,1099.00
2023-04-20T10:32:09.709Z,1104.00
2023-04-20T10:33:09.710Z,1101.00
2023-04-20T10:34:09.669Z,1115.00
2023-04-20T10:35:09.663Z,1162.00
2023-04-20T10:36:09.630Z,1135.00
2023-04-20T10:37:09.608Z,1126.00
2023-04-20T10:38:09.569Z,1117.00
2023-04-20T10:39:09.578Z,1139.00
2023-04-20T10:40:09.592Z,1198.00
2023-04-20T10:41:09.615Z,1099.00
2023-04-20T10:42:09.755Z,1105.00
2023-04-20T10:43:09.653Z,1123.00
2023-04-20T10:44:09.692Z,1127.00
2023-04-20T10:45:09.717Z,1146.00
2023-04-20T10:46:09.731Z,1153.00
2023-04-20T10:47:09.740Z,1155.00
2023-04-20T10:48:09.846Z,1145.00
2023-04-20T10:49:09.809Z,1197.00
2023-04-20T10:50:09.852Z,1213.00
2023-04-20T10:51:09.883Z,1217.00
2023-04-20T10:52:09.930Z,1218.00
2023-04-20T10:53:09.967Z,1242.00
2023-04-20T10:54:10.024Z,1242.00
2023-04-20T10:55:10.042Z,1243.00
2023-04-20T10:56:10.075Z,1256.00
2023-04-20T10:57:10.118Z,1280.00
2023-04-20T10:58:10.180Z,1290.00
2023-04-20T10:59:10.256Z,1302.00
2023-04-20T11:00:10.307Z,1325.00
2023-04-20T11:01:10.394Z,1337.00
2023-04-20T11:02:10.376Z,1366.00
2023-04-20T11:03:10.429Z,1382.00
2023-04-20T11:04:10.407Z,1369.00
2023-04-20T11:05:10.465Z,1379.00
2023-04-20T11:06:10.466Z,1390.00
2023-04-20T11:07:10.609Z,1386.00
2023-04-20T11:08:10.495Z,1409.00
2023-04-20T11:09:10.501Z,1411.00
2023-04-20T11:10:10.518Z,1321.00
2023-04-20T11:11:11.326Z,1288.00
2023-04-20T11:12:10.521Z,1338.00
2023-04-20T11:13:10.540Z,1368.00
2023-04-20T11:14:10.521Z,1372.00
2023-04-20T11:15:10.533Z,1430.00
2023-04-20T11:16:10.603Z,1591.00
2023-04-20T11:17:10.571Z,1561.00
2023-04-20T11:18:10.624Z,1414.00
2023-04-20T11:19:10.569Z,1411.00
2023-04-20T11:20:10.568Z,1386.00
2023-04-20T11:21:10.559Z,1270.00
2023-04-20T11:22:10.561Z,1287.00
2023-04-20T11:23:10.580Z,1280.00
2023-04-20T11:24:10.601Z,1299.00
2023-04-20T11:25:10.583Z,1411.00
2023-04-20T11:26:10.601Z,1421.00
2023-04-20T11:27:10.602Z,1434.00
2023-04-20T11:28:11.449Z,1431.00
2023-04-20T11:29:10.609Z,1429.00
2023-04-20T11:30:10.707Z,1434.00
2023-04-20T11:31:10.619Z,1440.00
2023-04-20T11:32:10.697Z,1434.00
2023-04-20T11:33:10.671Z,1426.00
2023-04-20T11:34:10.599Z,1408.00
2023-04-20T11:35:10.599Z,1403.00
2023-04-20T11:36:10.591Z,1396.00
2023-04-20T11:37:10.696Z,1368.00
2023-04-20T11:38:10.594Z,1354.00
2023-04-20T11:39:10.598Z,1350.00
2023-04-20T11:40:10.592Z,1348.00
2023-04-20T11:41:10.588Z,1347.00
2023-04-20T11:42:10.594Z,1344.00
2023-04-20T11:43:10.618Z,1344.00
2023-04-20T11:44:10.595Z,1347.00
2023-04-20T11:45:10.604Z,1383.00
2023-04-20T11:46:11.623Z,1400.00
2023-04-20T11:47:10.643Z,1349.00
2023-04-20T11:48:10.688Z,1357.00
2023-04-20T11:49:10.616Z,1364.00
2023-04-20T11:50:10.621Z,1364.00
2023-04-20T11:51:10.602Z,1355.00
2023-04-20T11:52:10.595Z,1335.00
2023-04-20T11:53:10.615Z,1314.00
2023-04-20T11:54:10.647Z,1314.00
2023-04-20T11:55:10.598Z,1313.00
2023-04-20T11:56:10.622Z,1308.00
2023-04-20T11:57:10.593Z,1304.00
2023-04-20T11:58:10.598Z,1306.00
2023-04-20T11:59:10.605Z,1306.00
2023-04-20T12:00:10.593Z,1297.00
2023-04-20T12:01:10.654Z,1291.00
2023-04-20T12:02:10.716Z,1313.00
2023-04-20T12:03:10.745Z,1310.00
2023-04-20T12:04:10.900Z,1318.00
2023-04-20T12:05:10.798Z,1373.00
2023-04-20T12:06:10.722Z,1450.00
2023-04-20T12:07:10.751Z,1442.00
2023-04-20T12:08:11.512Z,1439.00
2023-04-20T12:09:10.758Z,1363.00
2023-04-20T12:10:10.780Z,1330.00
2023-04-20T12:11:10.759Z,1906.00
2023-04-20T12:12:10.755Z,1350.00
2023-04-20T12:13:10.766Z,1339.00
2023-04-20T12:14:10.838Z,1342.00
2023-04-20T12:15:10.749Z,1345.00
2023-04-20T12:16:10.798Z,1350.00
2023-04-20T12:17:11.558Z,1368.00
2023-04-20T12:18:10.729Z,1378.00